AFL855 UUEE-LTFM
Flight info
| Callsign | AFL855 |
|---|---|
| Flight time | N/A |
| Altitude | 33000 |
| Route | EMGAS T828 EKTUT N72 UMSIS N166 ABLOG/K0850F350 R242 AMEPU W316 ANAKA/K0848F340 G476 ODIRA/N0470F280 N743 GAKSU DCT NUGBA |
| Aircraft | T154/M-SDFGIRY/S |
Departure
| Time | 2026-05-01 12:27 |
|---|---|
| Airport | Sheremetyevo International Airport (UUEE) |
Arrival
| Time | N/A |
|---|---|
| Airport | İstanbul Airport (LTFM) |
| Time | Latitude | Longitude | Altitude | Speed | Heading |
|---|---|---|---|---|---|
| 2026-05-01 10:54 | 55.97955 | 37.41852 | 641 ft | 0 kts | 255° |
| 2026-05-01 10:55 | 55.97746 | 37.41006 | 641 ft | 0 kts | 75° |
| 2026-05-01 11:58 | 55.97745 | 37.41002 | 641 ft | 1 kts | 75° |
| 2026-05-01 11:59 | 55.97741 | 37.40971 | 641 ft | 2 kts | 75° |
| 2026-05-01 11:59 | 55.97738 | 37.40944 | 641 ft | 2 kts | 97° |
| 2026-05-01 11:59 | 55.97743 | 37.40919 | 641 ft | 2 kts | 134° |
| 2026-05-01 12:00 | 55.97759 | 37.40904 | 641 ft | 0 kts | 165° |
| 2026-05-01 12:17 | 55.97752 | 37.40907 | 641 ft | 2 kts | 165° |
| 2026-05-01 12:17 | 55.97731 | 37.40917 | 641 ft | 4 kts | 165° |
| 2026-05-01 12:17 | 55.97695 | 37.40933 | 641 ft | 6 kts | 165° |
| 2026-05-01 12:17 | 55.97651 | 37.40974 | 641 ft | 7 kts | 128° |
| 2026-05-01 12:18 | 55.97635 | 37.41077 | 641 ft | 9 kts | 114° |
| 2026-05-01 12:18 | 55.97580 | 37.41146 | 641 ft | 10 kts | 155° |
| 2026-05-01 12:18 | 55.97547 | 37.41252 | 641 ft | 10 kts | 84° |
| 2026-05-01 12:18 | 55.97565 | 37.41386 | 641 ft | 9 kts | 75° |
| 2026-05-01 12:19 | 55.97583 | 37.41509 | 641 ft | 10 kts | 75° |
| 2026-05-01 12:19 | 55.97604 | 37.41644 | 641 ft | 11 kts | 74° |
| 2026-05-01 12:19 | 55.97625 | 37.41789 | 641 ft | 12 kts | 75° |
| 2026-05-01 12:19 | 55.97649 | 37.41946 | 641 ft | 13 kts | 75° |
| 2026-05-01 12:20 | 55.97674 | 37.42113 | 641 ft | 14 kts | 75° |
| 2026-05-01 12:20 | 55.97700 | 37.42290 | 641 ft | 15 kts | 75° |
| 2026-05-01 12:20 | 55.97728 | 37.42476 | 641 ft | 15 kts | 74° |
| 2026-05-01 12:20 | 55.97758 | 37.42673 | 641 ft | 16 kts | 75° |
| 2026-05-01 12:21 | 55.97788 | 37.42877 | 641 ft | 16 kts | 75° |
| 2026-05-01 12:21 | 55.97819 | 37.43083 | 641 ft | 17 kts | 74° |
| 2026-05-01 12:21 | 55.97851 | 37.43294 | 641 ft | 17 kts | 75° |
| 2026-05-01 12:21 | 55.97882 | 37.43505 | 641 ft | 17 kts | 75° |
| 2026-05-01 12:22 | 55.97915 | 37.43721 | 641 ft | 17 kts | 75° |
| 2026-05-01 12:22 | 55.97941 | 37.43898 | 641 ft | 11 kts | 74° |
| 2026-05-01 12:22 | 55.97932 | 37.44015 | 641 ft | 6 kts | 133° |
| 2026-05-01 12:22 | 55.97922 | 37.44028 | 641 ft | 0 kts | 151° |
| 2026-05-01 12:23 | 55.97921 | 37.44029 | 641 ft | 0 kts | 150° |
| 2026-05-01 12:23 | 55.97911 | 37.44038 | 641 ft | 2 kts | 158° |
| 2026-05-01 12:23 | 55.97883 | 37.44054 | 641 ft | 5 kts | 163° |
| 2026-05-01 12:23 | 55.97836 | 37.44073 | 641 ft | 8 kts | 173° |
| 2026-05-01 12:24 | 55.97784 | 37.44038 | 641 ft | 8 kts | 239° |
| 2026-05-01 12:24 | 55.97768 | 37.43940 | 641 ft | 1 kts | 255° |
| 2026-05-01 12:24 | 55.97767 | 37.43928 | 641 ft | 0 kts | 255° |
| 2026-05-01 12:25 | 55.97766 | 37.43923 | 641 ft | 4 kts | 255° |
| 2026-05-01 12:26 | 55.97724 | 37.43631 | 641 ft | 51 kts | 255° |
| 2026-05-01 12:26 | 55.97348 | 37.41112 | 642 ft | 152 kts | 255° |
| 2026-05-01 12:26 | 55.97065 | 37.39172 | 892 ft | 163 kts | 256° |
| 2026-05-01 12:27 | 55.96807 | 37.37238 | 1347 ft | 161 kts | 257° |
| 2026-05-01 12:27 | 55.96268 | 37.33318 | 2152 ft | 162 kts | 255° |
| 2026-05-01 12:28 | 55.95679 | 37.29330 | 2792 ft | 177 kts | 256° |
| 2026-05-01 12:28 | 55.95389 | 37.27097 | 3112 ft | 191 kts | 258° |
| 2026-05-01 12:28 | 55.94745 | 37.22368 | 4088 ft | 199 kts | 254° |
| 2026-05-01 12:29 | 55.94374 | 37.19946 | 4516 ft | 207 kts | 255° |
| 2026-05-01 12:29 | 55.93977 | 37.17347 | 4804 ft | 229 kts | 254° |
| 2026-05-01 12:29 | 55.93046 | 37.11571 | 5706 ft | 255 kts | 253° |
| 2026-05-01 12:30 | 55.92244 | 37.05263 | 6762 ft | 262 kts | 270° |
| 2026-05-01 12:30 | 55.92554 | 37.02099 | 7273 ft | 264 kts | 292° |
| 2026-05-01 12:30 | 55.93500 | 36.99297 | 7815 ft | 266 kts | 310° |
| 2026-05-01 12:31 | 55.94783 | 36.96863 | 8391 ft | 268 kts | 314° |
| 2026-05-01 12:31 | 55.96080 | 36.94445 | 8944 ft | 271 kts | 314° |
| 2026-05-01 12:31 | 55.97521 | 36.92292 | 9465 ft | 272 kts | 331° |
| 2026-05-01 12:31 | 55.99302 | 36.91157 | 10004 ft | 274 kts | 352° |
| 2026-05-01 12:32 | 56.01219 | 36.91270 | 10552 ft | 276 kts | 14° |
| 2026-05-01 12:32 | 56.04549 | 36.94700 | 11639 ft | 282 kts | 37° |
| 2026-05-01 12:32 | 56.06123 | 36.96816 | 12155 ft | 283 kts | 37° |
| 2026-05-01 12:33 | 56.07692 | 36.98936 | 12652 ft | 284 kts | 37° |
| 2026-05-01 12:33 | 56.09278 | 37.01080 | 13154 ft | 287 kts | 37° |
| 2026-05-01 12:33 | 56.10885 | 37.03252 | 13637 ft | 290 kts | 37° |
| 2026-05-01 12:33 | 56.12490 | 37.05490 | 14071 ft | 290 kts | 44° |
| 2026-05-01 12:34 | 56.13708 | 37.08380 | 14505 ft | 296 kts | 64° |
| 2026-05-01 12:34 | 56.14407 | 37.11900 | 15029 ft | 304 kts | 73° |
| 2026-05-01 12:34 | 56.15030 | 37.15572 | 15581 ft | 311 kts | 73° |
| 2026-05-01 12:34 | 56.15664 | 37.19327 | 16182 ft | 318 kts | 75° |
| 2026-05-01 12:35 | 56.16023 | 37.23305 | 16826 ft | 322 kts | 88° |
| 2026-05-01 12:35 | 56.15834 | 37.27294 | 17409 ft | 328 kts | 103° |
| 2026-05-01 12:35 | 56.15040 | 37.31160 | 18037 ft | 331 kts | 118° |
| 2026-05-01 12:35 | 56.13723 | 37.34525 | 18679 ft | 333 kts | 134° |
| 2026-05-01 12:36 | 56.11901 | 37.37091 | 19308 ft | 335 kts | 151° |
| 2026-05-01 12:36 | 56.09815 | 37.38975 | 19952 ft | 336 kts | 153° |
| 2026-05-01 12:36 | 56.07739 | 37.40810 | 20562 ft | 338 kts | 155° |
| 2026-05-01 12:36 | 56.05603 | 37.42572 | 21172 ft | 339 kts | 155° |
| 2026-05-01 12:37 | 56.03421 | 37.44384 | 21597 ft | 347 kts | 154° |
| 2026-05-01 12:37 | 56.01237 | 37.46205 | 22039 ft | 353 kts | 154° |
| 2026-05-01 12:37 | 55.98983 | 37.48086 | 22517 ft | 357 kts | 154° |
| 2026-05-01 12:37 | 55.96745 | 37.49968 | 22945 ft | 362 kts | 152° |
| 2026-05-01 12:38 | 55.94666 | 37.52529 | 23358 ft | 367 kts | 136° |
| 2026-05-01 12:38 | 55.93030 | 37.56135 | 23803 ft | 371 kts | 119° |
| 2026-05-01 12:38 | 55.92038 | 37.60366 | 24244 ft | 375 kts | 103° |
| 2026-05-01 12:38 | 55.91725 | 37.64983 | 24579 ft | 381 kts | 89° |
| 2026-05-01 12:39 | 55.91671 | 37.69756 | 24853 ft | 390 kts | 95° |
| 2026-05-01 12:39 | 55.91359 | 37.74659 | 25160 ft | 397 kts | 100° |
| 2026-05-01 12:39 | 55.90570 | 37.79387 | 25494 ft | 402 kts | 115° |
| 2026-05-01 12:39 | 55.89137 | 37.83750 | 25865 ft | 407 kts | 124° |
| 2026-05-01 12:40 | 55.87589 | 37.88010 | 26167 ft | 413 kts | 122° |
| 2026-05-01 12:40 | 55.86094 | 37.92422 | 26496 ft | 419 kts | 120° |
| 2026-05-01 12:40 | 55.84593 | 37.96903 | 26842 ft | 424 kts | 124° |
| 2026-05-01 12:40 | 55.82585 | 38.00814 | 27159 ft | 428 kts | 141° |
| 2026-05-01 12:41 | 55.80071 | 38.03652 | 27521 ft | 431 kts | 155° |
| 2026-05-01 12:41 | 55.77245 | 38.05346 | 27887 ft | 434 kts | 168° |
| 2026-05-01 12:41 | 55.74199 | 38.05808 | 28271 ft | 436 kts | 182° |
| 2026-05-01 12:41 | 55.71207 | 38.04990 | 28647 ft | 438 kts | 196° |
| 2026-05-01 12:42 | 55.68398 | 38.02957 | 29025 ft | 439 kts | 209° |
| 2026-05-01 12:42 | 55.65927 | 37.99825 | 29405 ft | 440 kts | 223° |
| 2026-05-01 12:42 | 55.63885 | 37.95698 | 29800 ft | 440 kts | 234° |
| 2026-05-01 12:42 | 55.61984 | 37.91503 | 30188 ft | 440 kts | 225° |
| 2026-05-01 12:43 | 55.59572 | 37.88097 | 30563 ft | 440 kts | 211° |
| 2026-05-01 12:43 | 55.56827 | 37.85830 | 30915 ft | 441 kts | 198° |
| 2026-05-01 12:43 | 55.53845 | 37.84626 | 31289 ft | 441 kts | 191° |
| 2026-05-01 12:43 | 55.50844 | 37.83467 | 31663 ft | 441 kts | 195° |
| 2026-05-01 12:44 | 55.47926 | 37.81849 | 32036 ft | 441 kts | 200° |
| 2026-05-01 12:44 | 55.45057 | 37.79888 | 32404 ft | 441 kts | 202° |
| 2026-05-01 12:44 | 55.39450 | 37.75601 | 33097 ft | 441 kts | 204° |
| 2026-05-01 12:45 | 55.33835 | 37.71173 | 33753 ft | 441 kts | 204° |
| 2026-05-01 12:45 | 55.31043 | 37.68970 | 34068 ft | 440 kts | 204° |
| 2026-05-01 12:45 | 55.28205 | 37.66835 | 34381 ft | 440 kts | 198° |
| 2026-05-01 12:46 | 55.25242 | 37.65681 | 34671 ft | 439 kts | 185° |
| 2026-05-01 12:46 | 55.22235 | 37.65774 | 34936 ft | 438 kts | 172° |
| 2026-05-01 12:46 | 55.19262 | 37.66928 | 35145 ft | 439 kts | 166° |
| 2026-05-01 12:46 | 55.16254 | 37.68218 | 35219 ft | 444 kts | 168° |
| 2026-05-01 12:47 | 55.10083 | 37.70177 | 35209 ft | 456 kts | 172° |
| 2026-05-01 12:47 | 55.03772 | 37.71747 | 35202 ft | 464 kts | 172° |
| 2026-05-01 12:48 | 54.97335 | 37.73415 | 35206 ft | 469 kts | 167° |
| 2026-05-01 12:48 | 54.91021 | 37.76208 | 35200 ft | 469 kts | 166° |
| 2026-05-01 12:49 | 54.84655 | 37.78447 | 35225 ft | 465 kts | 173° |
| 2026-05-01 12:49 | 54.78216 | 37.79740 | 35204 ft | 467 kts | 173° |
| 2026-05-01 12:50 | 54.71815 | 37.81150 | 35204 ft | 462 kts | 173° |
| 2026-05-01 12:50 | 54.65445 | 37.82610 | 35207 ft | 465 kts | 172° |
| 2026-05-01 12:51 | 54.59000 | 37.83247 | 35198 ft | 464 kts | 179° |
| 2026-05-01 12:52 | 54.49361 | 37.83660 | 35203 ft | 464 kts | 178° |
| 2026-05-01 12:52 | 54.42999 | 37.85274 | 35208 ft | 462 kts | 159° |
| 2026-05-01 12:52 | 54.40129 | 37.87735 | 35210 ft | 463 kts | 147° |
| 2026-05-01 12:53 | 54.31963 | 37.96654 | 35235 ft | 464 kts | 150° |
| 2026-05-01 12:54 | 54.26322 | 38.02056 | 35201 ft | 464 kts | 151° |
| 2026-05-01 12:54 | 54.17848 | 38.09936 | 35236 ft | 462 kts | 151° |
| 2026-05-01 12:55 | 54.09355 | 38.17781 | 35229 ft | 463 kts | 151° |
| 2026-05-01 12:56 | 54.03685 | 38.22998 | 35186 ft | 463 kts | 151° |
| 2026-05-01 12:56 | 53.98029 | 38.28186 | 35231 ft | 462 kts | 151° |
| 2026-05-01 12:57 | 53.92359 | 38.33371 | 35235 ft | 464 kts | 151° |
| 2026-05-01 12:57 | 53.83858 | 38.41087 | 35234 ft | 463 kts | 152° |
| 2026-05-01 12:58 | 53.78152 | 38.46252 | 35233 ft | 463 kts | 151° |
| 2026-05-01 12:59 | 53.69223 | 38.51979 | 35252 ft | 462 kts | 171° |
| 2026-05-01 12:59 | 53.59675 | 38.54539 | 35228 ft | 462 kts | 169° |
| 2026-05-01 13:00 | 53.50157 | 38.57599 | 35233 ft | 463 kts | 168° |
| 2026-05-01 13:01 | 53.40699 | 38.60689 | 35227 ft | 462 kts | 168° |
| 2026-05-01 13:02 | 53.31185 | 38.63783 | 35233 ft | 463 kts | 168° |
| 2026-05-01 13:07 | 52.61756 | 38.85981 | 35230 ft | 462 kts | 169° |
| 2026-05-01 13:08 | 52.55448 | 38.87960 | 35230 ft | 462 kts | 169° |
| 2026-05-01 13:08 | 52.49121 | 38.89939 | 35232 ft | 462 kts | 169° |
| 2026-05-01 13:09 | 52.42805 | 38.91908 | 35231 ft | 462 kts | 169° |
| 2026-05-01 13:09 | 52.36641 | 38.94613 | 35238 ft | 461 kts | 154° |
| 2026-05-01 13:09 | 52.33904 | 38.97377 | 35248 ft | 462 kts | 143° |
| 2026-05-01 13:10 | 52.31350 | 39.00581 | 35237 ft | 465 kts | 142° |
| 2026-05-01 13:10 | 52.26155 | 39.06704 | 35232 ft | 461 kts | 146° |
| 2026-05-01 13:11 | 52.20795 | 39.12546 | 35232 ft | 462 kts | 146° |
| 2026-05-01 13:11 | 52.15427 | 39.18282 | 35234 ft | 462 kts | 147° |
| 2026-05-01 13:12 | 52.10034 | 39.24015 | 35230 ft | 462 kts | 147° |
| 2026-05-01 13:12 | 52.04668 | 39.29698 | 35225 ft | 461 kts | 147° |
| 2026-05-01 13:13 | 51.99287 | 39.35381 | 35228 ft | 462 kts | 147° |
| 2026-05-01 13:13 | 51.93896 | 39.41058 | 35231 ft | 461 kts | 147° |
| 2026-05-01 13:14 | 51.88500 | 39.46721 | 35210 ft | 462 kts | 147° |
| 2026-05-01 13:14 | 51.83088 | 39.52355 | 35234 ft | 461 kts | 147° |
| 2026-05-01 13:15 | 51.77718 | 39.57951 | 35233 ft | 461 kts | 147° |
| 2026-05-01 13:15 | 51.72291 | 39.63471 | 35227 ft | 461 kts | 153° |
| 2026-05-01 13:16 | 51.66227 | 39.66837 | 35226 ft | 463 kts | 164° |
| 2026-05-01 13:16 | 51.60095 | 39.69888 | 35228 ft | 460 kts | 162° |
| 2026-05-01 13:17 | 51.47928 | 39.76401 | 35225 ft | 460 kts | 161° |
| 2026-05-01 13:18 | 51.38836 | 39.81293 | 35231 ft | 461 kts | 161° |
| 2026-05-01 13:18 | 51.32732 | 39.84566 | 35228 ft | 461 kts | 161° |
| 2026-05-01 13:19 | 51.26660 | 39.87814 | 35228 ft | 461 kts | 161° |
| 2026-05-01 13:20 | 51.17573 | 39.92656 | 35229 ft | 461 kts | 161° |
| 2026-05-01 13:20 | 51.11492 | 39.95885 | 35228 ft | 460 kts | 161° |
| 2026-05-01 13:21 | 51.02384 | 40.00700 | 35231 ft | 460 kts | 161° |
| 2026-05-01 13:21 | 50.96284 | 40.03914 | 35232 ft | 461 kts | 161° |
| 2026-05-01 13:22 | 50.90203 | 40.07108 | 35231 ft | 460 kts | 161° |
| 2026-05-01 13:22 | 50.84141 | 40.10270 | 35239 ft | 460 kts | 161° |
| 2026-05-01 13:23 | 50.78064 | 40.13438 | 35235 ft | 460 kts | 161° |
| 2026-05-01 13:23 | 50.71969 | 40.16613 | 35229 ft | 460 kts | 161° |
| 2026-05-01 13:24 | 50.65918 | 40.19759 | 35230 ft | 460 kts | 161° |
| 2026-05-01 13:25 | 50.56794 | 40.24486 | 35231 ft | 460 kts | 161° |
| 2026-05-01 13:25 | 50.50687 | 40.27639 | 35232 ft | 460 kts | 161° |
| 2026-05-01 13:26 | 50.44640 | 40.30752 | 35233 ft | 460 kts | 161° |
| 2026-05-01 13:26 | 50.38551 | 40.33879 | 35237 ft | 460 kts | 161° |
| 2026-05-01 13:27 | 50.32486 | 40.36985 | 35230 ft | 460 kts | 161° |
| 2026-05-01 13:27 | 50.23357 | 40.41644 | 35227 ft | 460 kts | 161° |
| 2026-05-01 13:28 | 50.14257 | 40.46270 | 35229 ft | 460 kts | 161° |
| 2026-05-01 13:29 | 50.02076 | 40.52428 | 35231 ft | 460 kts | 161° |
| 2026-05-01 13:31 | 49.83826 | 40.61554 | 35146 ft | 460 kts | 162° |
| 2026-05-01 13:32 | 49.68601 | 40.69153 | 35135 ft | 460 kts | 162° |
| 2026-05-01 13:33 | 49.59294 | 40.71931 | 35160 ft | 460 kts | 184° |
| 2026-05-01 13:33 | 49.52880 | 40.71206 | 35145 ft | 466 kts | 183° |
| 2026-05-01 13:34 | 49.39981 | 40.70612 | 35146 ft | 465 kts | 181° |
| 2026-05-01 13:35 | 49.30306 | 40.70347 | 35139 ft | 464 kts | 181° |
| 2026-05-01 13:36 | 49.20643 | 40.70097 | 35138 ft | 464 kts | 181° |
| 2026-05-01 13:36 | 49.10964 | 40.69845 | 35142 ft | 464 kts | 181° |
| 2026-05-01 13:37 | 49.04524 | 40.69678 | 35137 ft | 464 kts | 181° |
| 2026-05-01 13:37 | 48.98042 | 40.69510 | 35146 ft | 465 kts | 181° |
| 2026-05-01 13:38 | 48.88380 | 40.68796 | 35134 ft | 464 kts | 191° |
| 2026-05-01 13:39 | 48.82116 | 40.66685 | 35143 ft | 465 kts | 192° |
| 2026-05-01 13:39 | 48.75766 | 40.64700 | 35148 ft | 464 kts | 191° |
| 2026-05-01 13:40 | 48.69445 | 40.62839 | 35138 ft | 465 kts | 191° |
| 2026-05-01 13:40 | 48.63108 | 40.60999 | 35141 ft | 465 kts | 191° |
| 2026-05-01 13:41 | 48.56747 | 40.59158 | 35142 ft | 465 kts | 191° |
| 2026-05-01 13:41 | 48.50407 | 40.57328 | 35146 ft | 465 kts | 191° |
| 2026-05-01 13:42 | 48.44050 | 40.55497 | 35143 ft | 465 kts | 191° |
| 2026-05-01 13:42 | 48.37715 | 40.53695 | 35144 ft | 465 kts | 191° |
| 2026-05-01 13:43 | 48.31359 | 40.51893 | 35145 ft | 465 kts | 191° |
| 2026-05-01 13:43 | 48.24997 | 40.50091 | 35140 ft | 465 kts | 191° |
| 2026-05-01 13:44 | 48.18652 | 40.48298 | 35141 ft | 465 kts | 191° |
| 2026-05-01 13:44 | 48.12335 | 40.46519 | 35142 ft | 465 kts | 191° |
| 2026-05-01 13:45 | 48.05954 | 40.44726 | 35140 ft | 466 kts | 191° |
| 2026-05-01 13:45 | 47.99625 | 40.42952 | 35142 ft | 466 kts | 191° |
| 2026-05-01 13:46 | 47.93257 | 40.41170 | 35142 ft | 466 kts | 191° |
| 2026-05-01 13:46 | 47.86866 | 40.39391 | 35134 ft | 465 kts | 191° |
| 2026-05-01 13:47 | 47.80522 | 40.37566 | 35143 ft | 466 kts | 196° |
| 2026-05-01 13:47 | 47.77507 | 40.35849 | 35159 ft | 465 kts | 208° |
| 2026-05-01 13:47 | 47.74798 | 40.33293 | 35151 ft | 466 kts | 216° |
| 2026-05-01 13:48 | 47.69506 | 40.27718 | 35148 ft | 466 kts | 213° |
| 2026-05-01 13:48 | 47.64051 | 40.22522 | 35136 ft | 466 kts | 212° |
| 2026-05-01 13:49 | 47.58564 | 40.17493 | 35140 ft | 466 kts | 211° |
| 2026-05-01 13:49 | 47.53014 | 40.12447 | 35140 ft | 466 kts | 211° |
| 2026-05-01 13:50 | 47.47505 | 40.07452 | 35142 ft | 466 kts | 211° |
| 2026-05-01 13:50 | 47.41958 | 40.02434 | 35144 ft | 467 kts | 211° |
| 2026-05-01 13:51 | 47.36454 | 39.97469 | 35146 ft | 467 kts | 211° |
| 2026-05-01 13:51 | 47.30901 | 39.92471 | 35140 ft | 467 kts | 211° |
| 2026-05-01 13:52 | 47.25365 | 39.87502 | 35138 ft | 467 kts | 211° |
| 2026-05-01 13:52 | 47.19821 | 39.82537 | 35142 ft | 467 kts | 211° |
| 2026-05-01 13:53 | 47.14792 | 39.76547 | 35146 ft | 468 kts | 223° |
| 2026-05-01 13:53 | 47.07573 | 39.67007 | 35140 ft | 467 kts | 221° |
| 2026-05-01 13:54 | 47.02661 | 39.60762 | 35144 ft | 468 kts | 221° |
| 2026-05-01 13:54 | 46.97722 | 39.54522 | 35138 ft | 467 kts | 221° |
| 2026-05-01 13:55 | 46.92804 | 39.48329 | 35141 ft | 468 kts | 221° |
| 2026-05-01 13:55 | 46.87855 | 39.42123 | 35126 ft | 467 kts | 221° |
| 2026-05-01 13:56 | 46.82928 | 39.35984 | 35141 ft | 468 kts | 221° |
| 2026-05-01 13:56 | 46.77981 | 39.29787 | 35144 ft | 468 kts | 220° |
| 2026-05-01 13:57 | 46.73871 | 39.24646 | 35138 ft | 468 kts | 220° |
| 2026-05-01 13:57 | 46.68069 | 39.17424 | 35140 ft | 468 kts | 220° |
| 2026-05-01 13:58 | 46.63120 | 39.11284 | 35138 ft | 468 kts | 220° |
| 2026-05-01 13:58 | 46.58150 | 39.05135 | 35109 ft | 469 kts | 220° |
| 2026-05-01 13:59 | 46.53194 | 38.99056 | 35120 ft | 468 kts | 218° |
| 2026-05-01 13:59 | 46.47966 | 38.93312 | 35111 ft | 469 kts | 217° |
| 2026-05-01 14:00 | 46.42789 | 38.87644 | 35111 ft | 468 kts | 217° |
| 2026-05-01 14:00 | 46.37623 | 38.81942 | 35110 ft | 468 kts | 217° |
| 2026-05-01 14:01 | 46.32408 | 38.76189 | 35111 ft | 469 kts | 217° |
| 2026-05-01 14:01 | 46.27229 | 38.70489 | 35114 ft | 469 kts | 217° |
| 2026-05-01 14:02 | 46.22053 | 38.64805 | 35113 ft | 469 kts | 217° |
| 2026-05-01 14:02 | 46.16844 | 38.59099 | 35118 ft | 469 kts | 217° |
| 2026-05-01 14:03 | 46.11633 | 38.53406 | 35113 ft | 469 kts | 217° |
| 2026-05-01 14:03 | 46.06460 | 38.47767 | 35112 ft | 469 kts | 217° |
| 2026-05-01 14:04 | 46.01236 | 38.42086 | 35115 ft | 469 kts | 217° |
| 2026-05-01 14:04 | 45.96912 | 38.37394 | 35111 ft | 469 kts | 217° |
| 2026-05-01 14:05 | 45.90842 | 38.30804 | 35115 ft | 469 kts | 217° |
| 2026-05-01 14:05 | 45.85600 | 38.25149 | 35119 ft | 469 kts | 217° |
| 2026-05-01 14:06 | 45.80372 | 38.19534 | 35112 ft | 469 kts | 217° |
| 2026-05-01 14:06 | 45.75133 | 38.13909 | 35085 ft | 469 kts | 217° |
| 2026-05-01 14:07 | 45.69920 | 38.08322 | 35086 ft | 470 kts | 217° |
| 2026-05-01 14:08 | 45.62086 | 37.99950 | 35077 ft | 469 kts | 217° |
| 2026-05-01 14:08 | 45.56869 | 37.94392 | 35076 ft | 470 kts | 217° |
| 2026-05-01 14:09 | 45.51617 | 37.88809 | 35083 ft | 470 kts | 217° |
| 2026-05-01 14:09 | 45.46390 | 37.83266 | 35081 ft | 470 kts | 217° |
| 2026-05-01 14:10 | 45.41137 | 37.77705 | 35084 ft | 470 kts | 217° |
| 2026-05-01 14:10 | 45.35876 | 37.72133 | 35082 ft | 470 kts | 217° |
| 2026-05-01 14:11 | 45.30653 | 37.66614 | 35081 ft | 470 kts | 217° |
| 2026-05-01 14:11 | 45.22764 | 37.58306 | 35080 ft | 470 kts | 217° |
| 2026-05-01 14:12 | 45.17495 | 37.52774 | 35082 ft | 470 kts | 217° |
| 2026-05-01 14:12 | 45.12249 | 37.47278 | 35080 ft | 470 kts | 217° |
| 2026-05-01 14:13 | 45.07869 | 37.42701 | 35083 ft | 470 kts | 217° |
| 2026-05-01 14:13 | 45.01741 | 37.36315 | 35082 ft | 471 kts | 216° |
| 2026-05-01 14:14 | 44.98890 | 37.33999 | 35085 ft | 470 kts | 202° |
| 2026-05-01 14:14 | 44.95793 | 37.32636 | 35210 ft | 466 kts | 189° |
| 2026-05-01 14:14 | 44.92574 | 37.32200 | 35631 ft | 462 kts | 182° |
| 2026-05-01 14:14 | 44.89397 | 37.31966 | 35878 ft | 463 kts | 184° |
| 2026-05-01 14:15 | 44.86183 | 37.31576 | 35983 ft | 466 kts | 186° |
| 2026-05-01 14:15 | 44.82964 | 37.31043 | 36102 ft | 468 kts | 187° |
| 2026-05-01 14:15 | 44.76431 | 37.29763 | 36091 ft | 477 kts | 188° |
| 2026-05-01 14:16 | 44.69856 | 37.28410 | 36084 ft | 481 kts | 188° |
| 2026-05-01 14:16 | 44.63242 | 37.27046 | 36077 ft | 481 kts | 188° |
| 2026-05-01 14:17 | 44.56652 | 37.25690 | 36083 ft | 481 kts | 188° |
| 2026-05-01 14:17 | 44.50023 | 37.24315 | 36085 ft | 481 kts | 188° |
| 2026-05-01 14:18 | 44.43418 | 37.22946 | 36083 ft | 481 kts | 188° |
| 2026-05-01 14:18 | 44.37889 | 37.21804 | 36087 ft | 481 kts | 188° |
| 2026-05-01 14:19 | 44.30177 | 37.20207 | 36084 ft | 481 kts | 188° |
| 2026-05-01 14:19 | 44.23569 | 37.18842 | 36083 ft | 481 kts | 188° |
| 2026-05-01 14:20 | 44.13587 | 37.16788 | 36085 ft | 481 kts | 188° |
| 2026-05-01 14:21 | 44.06963 | 37.15721 | 36090 ft | 481 kts | 184° |
| 2026-05-01 14:21 | 44.00308 | 37.15071 | 36082 ft | 480 kts | 184° |
| 2026-05-01 14:22 | 43.90337 | 37.13480 | 36083 ft | 481 kts | 188° |
| 2026-05-01 14:22 | 43.83716 | 37.12127 | 36089 ft | 480 kts | 188° |
| 2026-05-01 14:23 | 43.77070 | 37.10832 | 36087 ft | 481 kts | 188° |
| 2026-05-01 14:23 | 43.70449 | 37.09559 | 36089 ft | 481 kts | 188° |
| 2026-05-01 14:24 | 43.63849 | 37.08294 | 36084 ft | 481 kts | 188° |
| 2026-05-01 14:24 | 43.57204 | 37.07026 | 36078 ft | 481 kts | 188° |
| 2026-05-01 14:25 | 43.50576 | 37.05767 | 36079 ft | 481 kts | 188° |
| 2026-05-01 14:25 | 43.43960 | 37.04514 | 36079 ft | 481 kts | 188° |
| 2026-05-01 14:26 | 43.34039 | 37.02638 | 36081 ft | 481 kts | 188° |
| 2026-05-01 14:27 | 43.27421 | 37.01390 | 36087 ft | 481 kts | 188° |
| 2026-05-01 14:27 | 43.20807 | 37.00146 | 36087 ft | 481 kts | 188° |
| 2026-05-01 14:28 | 43.10875 | 36.98299 | 36083 ft | 480 kts | 187° |
| 2026-05-01 14:28 | 43.04253 | 36.97173 | 36079 ft | 481 kts | 187° |
| 2026-05-01 14:29 | 42.97597 | 36.96038 | 36084 ft | 481 kts | 187° |
| 2026-05-01 14:30 | 42.84354 | 36.93773 | 36092 ft | 480 kts | 187° |
| 2026-05-01 14:31 | 42.74479 | 36.91644 | 36087 ft | 479 kts | 199° |
| 2026-05-01 14:31 | 42.71434 | 36.89719 | 36097 ft | 480 kts | 211° |
| 2026-05-01 14:31 | 42.68771 | 36.86973 | 36096 ft | 480 kts | 224° |
| 2026-05-01 14:31 | 42.66602 | 36.83543 | 36094 ft | 481 kts | 236° |
| 2026-05-01 14:32 | 42.64956 | 36.79618 | 36094 ft | 481 kts | 247° |
| 2026-05-01 14:32 | 42.62858 | 36.70937 | 36083 ft | 481 kts | 251° |
| 2026-05-01 14:33 | 42.60310 | 36.62587 | 36085 ft | 480 kts | 245° |
| 2026-05-01 14:33 | 42.57403 | 36.54431 | 36083 ft | 481 kts | 244° |
| 2026-05-01 14:34 | 42.54412 | 36.46255 | 36082 ft | 481 kts | 244° |
| 2026-05-01 14:34 | 42.51421 | 36.38146 | 36084 ft | 481 kts | 244° |
| 2026-05-01 14:35 | 42.48432 | 36.30036 | 36088 ft | 480 kts | 243° |
| 2026-05-01 14:35 | 42.45453 | 36.21962 | 36088 ft | 481 kts | 243° |
| 2026-05-01 14:36 | 42.42448 | 36.13858 | 36088 ft | 480 kts | 243° |
| 2026-05-01 14:36 | 42.39444 | 36.05782 | 36085 ft | 481 kts | 243° |
| 2026-05-01 14:37 | 42.36430 | 35.97706 | 36083 ft | 481 kts | 243° |
| 2026-05-01 14:37 | 42.33394 | 35.89593 | 36076 ft | 481 kts | 243° |
| 2026-05-01 14:38 | 42.30369 | 35.81531 | 36080 ft | 481 kts | 243° |
| 2026-05-01 14:38 | 42.27321 | 35.73432 | 36082 ft | 481 kts | 243° |
| 2026-05-01 14:39 | 42.24294 | 35.65412 | 36088 ft | 481 kts | 243° |
| 2026-05-01 14:39 | 42.21263 | 35.57402 | 36084 ft | 480 kts | 243° |
| 2026-05-01 14:40 | 42.18213 | 35.49368 | 36083 ft | 481 kts | 243° |
| 2026-05-01 14:40 | 42.15163 | 35.41354 | 36082 ft | 481 kts | 243° |
| 2026-05-01 14:41 | 42.12121 | 35.33341 | 36065 ft | 481 kts | 243° |
| 2026-05-01 14:41 | 42.09086 | 35.25322 | 36081 ft | 481 kts | 243° |
| 2026-05-01 14:42 | 42.06021 | 35.17274 | 36081 ft | 480 kts | 243° |
| 2026-05-01 14:42 | 42.02982 | 35.09311 | 36083 ft | 481 kts | 244° |
| 2026-05-01 14:42 | 42.01792 | 35.05073 | 36087 ft | 480 kts | 256° |
| 2026-05-01 14:43 | 42.01324 | 35.00666 | 36090 ft | 480 kts | 268° |
| 2026-05-01 14:43 | 42.01311 | 34.91626 | 36093 ft | 481 kts | 269° |
| 2026-05-01 14:44 | 42.01031 | 34.82672 | 36087 ft | 480 kts | 267° |
| 2026-05-01 14:44 | 42.00418 | 34.69254 | 36028 ft | 480 kts | 266° |
| 2026-05-01 14:45 | 41.99753 | 34.55788 | 36022 ft | 481 kts | 266° |
| 2026-05-01 14:46 | 41.99300 | 34.46829 | 36023 ft | 480 kts | 266° |
| 2026-05-01 14:46 | 41.98606 | 34.33356 | 36012 ft | 481 kts | 265° |
| 2026-05-01 14:47 | 41.98139 | 34.24435 | 36026 ft | 481 kts | 265° |
| 2026-05-01 14:48 | 41.97421 | 34.11000 | 36027 ft | 481 kts | 265° |
| 2026-05-01 14:48 | 41.96685 | 33.97547 | 36023 ft | 481 kts | 265° |
| 2026-05-01 14:49 | 41.95681 | 33.79615 | 36023 ft | 481 kts | 265° |
| 2026-05-01 14:50 | 41.94647 | 33.61724 | 36024 ft | 481 kts | 265° |
| 2026-05-01 14:51 | 41.93848 | 33.48251 | 36027 ft | 481 kts | 265° |
| 2026-05-01 14:52 | 41.93037 | 33.34817 | 36027 ft | 481 kts | 265° |
| 2026-05-01 14:53 | 41.92211 | 33.21398 | 36020 ft | 481 kts | 265° |
| 2026-05-01 14:53 | 41.91653 | 33.12475 | 36019 ft | 481 kts | 265° |
| 2026-05-01 14:54 | 41.91086 | 33.03533 | 36021 ft | 481 kts | 265° |
| 2026-05-01 14:54 | 41.90510 | 32.94562 | 35982 ft | 481 kts | 265° |
| 2026-05-01 14:55 | 41.89928 | 32.85616 | 35996 ft | 481 kts | 265° |
| 2026-05-01 14:55 | 41.89311 | 32.76685 | 36001 ft | 481 kts | 265° |
| 2026-05-01 14:56 | 41.88712 | 32.67878 | 35938 ft | 461 kts | 265° |
| 2026-05-01 14:56 | 41.88422 | 32.63573 | 35658 ft | 460 kts | 265° |
| 2026-05-01 14:56 | 41.88132 | 32.59296 | 35254 ft | 461 kts | 265° |
| 2026-05-01 14:56 | 41.87846 | 32.55073 | 34769 ft | 456 kts | 265° |
| 2026-05-01 14:57 | 41.87558 | 32.50853 | 34272 ft | 451 kts | 265° |
| 2026-05-01 14:57 | 41.87532 | 32.42619 | 34010 ft | 436 kts | 283° |
| 2026-05-01 14:57 | 41.88452 | 32.38716 | 34315 ft | 439 kts | 292° |
| 2026-05-01 14:58 | 41.89577 | 32.34876 | 34639 ft | 441 kts | 288° |
| 2026-05-01 14:58 | 41.90270 | 32.30865 | 34848 ft | 446 kts | 279° |
| 2026-05-01 14:58 | 41.90713 | 32.26710 | 35059 ft | 451 kts | 277° |
| 2026-05-01 14:58 | 41.90988 | 32.22517 | 35261 ft | 454 kts | 269° |
| 2026-05-01 14:59 | 41.90602 | 32.18323 | 35440 ft | 457 kts | 256° |
| 2026-05-01 14:59 | 41.89604 | 32.14219 | 35658 ft | 460 kts | 250° |
| 2026-05-01 14:59 | 41.88477 | 32.10176 | 35880 ft | 462 kts | 248° |
| 2026-05-01 14:59 | 41.87287 | 32.06173 | 36100 ft | 464 kts | 248° |
| 2026-05-01 15:00 | 41.84837 | 31.98023 | 36091 ft | 475 kts | 248° |
| 2026-05-01 15:00 | 41.83610 | 31.93929 | 36158 ft | 478 kts | 248° |
| 2026-05-01 15:01 | 41.81125 | 31.85628 | 36260 ft | 481 kts | 248° |
| 2026-05-01 15:01 | 41.78637 | 31.77335 | 36263 ft | 481 kts | 248° |
| 2026-05-01 15:02 | 41.76134 | 31.69022 | 36278 ft | 480 kts | 248° |
| 2026-05-01 15:02 | 41.73634 | 31.60738 | 36304 ft | 481 kts | 248° |
| 2026-05-01 15:03 | 41.71116 | 31.52426 | 36307 ft | 481 kts | 248° |
| 2026-05-01 15:03 | 41.68595 | 31.44128 | 36312 ft | 481 kts | 248° |
| 2026-05-01 15:04 | 41.66065 | 31.35827 | 36311 ft | 481 kts | 248° |
| 2026-05-01 15:04 | 41.63539 | 31.27540 | 36318 ft | 480 kts | 248° |
| 2026-05-01 15:05 | 41.60999 | 31.19242 | 36309 ft | 481 kts | 248° |
| 2026-05-01 15:05 | 41.58460 | 31.10988 | 36305 ft | 481 kts | 248° |
| 2026-05-01 15:05 | 41.57200 | 31.06900 | 36301 ft | 470 kts | 248° |
| 2026-05-01 15:06 | 41.55973 | 31.02929 | 36294 ft | 459 kts | 248° |
| 2026-05-01 15:06 | 41.53518 | 30.94996 | 36265 ft | 468 kts | 248° |
| 2026-05-01 15:06 | 41.52269 | 30.90971 | 35941 ft | 471 kts | 248° |
| 2026-05-01 15:07 | 41.51025 | 30.86968 | 35506 ft | 464 kts | 248° |
| 2026-05-01 15:07 | 41.49794 | 30.83012 | 35018 ft | 457 kts | 248° |
| 2026-05-01 15:07 | 41.48573 | 30.79094 | 34531 ft | 452 kts | 248° |
| 2026-05-01 15:07 | 41.47451 | 30.75499 | 34081 ft | 447 kts | 248° |
| 2026-05-01 15:08 | 41.46932 | 30.73838 | 33871 ft | 445 kts | 248° |
| 2026-05-01 15:08 | 41.45746 | 30.70042 | 33398 ft | 440 kts | 245° |
| 2026-05-01 15:08 | 41.44591 | 30.66354 | 33010 ft | 429 kts | 246° |
| 2026-05-01 15:08 | 41.43444 | 30.62695 | 32525 ft | 423 kts | 246° |
| 2026-05-01 15:09 | 41.42314 | 30.59097 | 32035 ft | 417 kts | 245° |
| 2026-05-01 15:09 | 41.41211 | 30.55589 | 31547 ft | 412 kts | 245° |
| 2026-05-01 15:09 | 41.40102 | 30.52065 | 31049 ft | 407 kts | 245° |
| 2026-05-01 15:09 | 41.39017 | 30.48623 | 30558 ft | 403 kts | 245° |
| 2026-05-01 15:10 | 41.37949 | 30.45241 | 30071 ft | 399 kts | 245° |
| 2026-05-01 15:10 | 41.35811 | 30.38479 | 29082 ft | 392 kts | 244° |
| 2026-05-01 15:10 | 41.34755 | 30.35147 | 28590 ft | 388 kts | 244° |
| 2026-05-01 15:11 | 41.33714 | 30.31856 | 28026 ft | 387 kts | 244° |
| 2026-05-01 15:11 | 41.31630 | 30.25269 | 26860 ft | 385 kts | 243° |
| 2026-05-01 15:11 | 41.30606 | 30.22049 | 26371 ft | 382 kts | 243° |
| 2026-05-01 15:12 | 41.29566 | 30.18781 | 25881 ft | 379 kts | 243° |
| 2026-05-01 15:12 | 41.27519 | 30.12372 | 24900 ft | 375 kts | 243° |
| 2026-05-01 15:12 | 41.26510 | 30.09217 | 24424 ft | 374 kts | 243° |
| 2026-05-01 15:13 | 41.23470 | 29.99739 | 22991 ft | 370 kts | 243° |
| 2026-05-01 15:14 | 41.21462 | 29.93493 | 22048 ft | 367 kts | 243° |
| 2026-05-01 15:14 | 41.20459 | 29.90378 | 21585 ft | 366 kts | 243° |
| 2026-05-01 15:14 | 41.18453 | 29.84162 | 20626 ft | 363 kts | 243° |
| 2026-05-01 15:15 | 41.16470 | 29.78031 | 19675 ft | 359 kts | 244° |
| 2026-05-01 15:15 | 41.14511 | 29.71987 | 18753 ft | 356 kts | 244° |
| 2026-05-01 15:16 | 41.12557 | 29.65969 | 17848 ft | 352 kts | 244° |
| 2026-05-01 15:16 | 41.10616 | 29.60010 | 16930 ft | 348 kts | 244° |
| 2026-05-01 15:17 | 41.08720 | 29.54195 | 16084 ft | 342 kts | 244° |
| 2026-05-01 15:18 | 41.05901 | 29.45579 | 15282 ft | 338 kts | 244° |
| 2026-05-01 15:18 | 41.04966 | 29.42728 | 15047 ft | 336 kts | 244° |
| 2026-05-01 15:19 | 41.02175 | 29.34231 | 14209 ft | 333 kts | 243° |
| 2026-05-01 15:19 | 41.00356 | 29.28686 | 13223 ft | 328 kts | 243° |
| 2026-05-01 15:19 | 40.99444 | 29.25931 | 12735 ft | 325 kts | 243° |
| 2026-05-01 15:20 | 40.97653 | 29.20515 | 11775 ft | 319 kts | 243° |
| 2026-05-01 15:20 | 40.96762 | 29.17818 | 11296 ft | 316 kts | 243° |
| 2026-05-01 15:20 | 40.95886 | 29.15172 | 10825 ft | 313 kts | 243° |
| 2026-05-01 15:21 | 40.95016 | 29.12546 | 10338 ft | 311 kts | 243° |
| 2026-05-01 15:21 | 40.94152 | 29.09943 | 9851 ft | 309 kts | 243° |
| 2026-05-01 15:21 | 40.93288 | 29.07341 | 9363 ft | 308 kts | 243° |
| 2026-05-01 15:21 | 40.92607 | 29.04672 | 8879 ft | 309 kts | 258° |
| 2026-05-01 15:22 | 40.92600 | 28.99026 | 7902 ft | 306 kts | 259° |
| 2026-05-01 15:22 | 40.92028 | 28.96366 | 7453 ft | 300 kts | 248° |
| 2026-05-01 15:22 | 40.91356 | 28.93761 | 6987 ft | 294 kts | 252° |
| 2026-05-01 15:23 | 40.90892 | 28.91180 | 6482 ft | 285 kts | 257° |
| 2026-05-01 15:23 | 40.90567 | 28.88644 | 5956 ft | 278 kts | 260° |
| 2026-05-01 15:23 | 40.90316 | 28.86143 | 5415 ft | 273 kts | 262° |
| 2026-05-01 15:23 | 40.90106 | 28.83655 | 4911 ft | 267 kts | 263° |
| 2026-05-01 15:24 | 40.89930 | 28.81349 | 4982 ft | 238 kts | 263° |
| 2026-05-01 15:24 | 40.89771 | 28.79281 | 4978 ft | 217 kts | 263° |
| 2026-05-01 15:24 | 40.89849 | 28.77333 | 4862 ft | 220 kts | 287° |
| 2026-05-01 15:24 | 40.90565 | 28.75570 | 4601 ft | 215 kts | 316° |
| 2026-05-01 15:25 | 40.91748 | 28.74484 | 4313 ft | 206 kts | 346° |
| 2026-05-01 15:25 | 40.93137 | 28.74153 | 4040 ft | 201 kts | 355° |
| 2026-05-01 15:25 | 40.94513 | 28.73762 | 3774 ft | 205 kts | 349° |
| 2026-05-01 15:25 | 40.95879 | 28.73234 | 3522 ft | 205 kts | 347° |
| 2026-05-01 15:26 | 40.97238 | 28.72637 | 3265 ft | 206 kts | 346° |
| 2026-05-01 15:26 | 40.98591 | 28.72004 | 2981 ft | 207 kts | 345° |
| 2026-05-01 15:26 | 40.99942 | 28.71350 | 2717 ft | 207 kts | 345° |
| 2026-05-01 15:26 | 41.01304 | 28.70921 | 2470 ft | 194 kts | 6° |
| 2026-05-01 15:27 | 41.02558 | 28.71074 | 2445 ft | 171 kts | 9° |
| 2026-05-01 15:27 | 41.03730 | 28.71160 | 2490 ft | 174 kts | 7° |
| 2026-05-01 15:27 | 41.04939 | 28.71185 | 2491 ft | 170 kts | 4° |
| 2026-05-01 15:28 | 41.07276 | 28.70884 | 2407 ft | 155 kts | 359° |
| 2026-05-01 15:28 | 41.08333 | 28.70791 | 2389 ft | 153 kts | 5° |
| 2026-05-01 15:28 | 41.09334 | 28.70802 | 2351 ft | 129 kts | 7° |
| 2026-05-01 15:29 | 41.11221 | 28.70900 | 2437 ft | 141 kts | 9° |
| 2026-05-01 15:29 | 41.12158 | 28.70964 | 2527 ft | 140 kts | 9° |
| 2026-05-01 15:29 | 41.14086 | 28.71042 | 2682 ft | 139 kts | 5° |
| 2026-05-01 15:30 | 41.16019 | 28.70954 | 2780 ft | 140 kts | 3° |
| 2026-05-01 15:31 | 41.19825 | 28.70717 | 2189 ft | 130 kts | 7° |
| 2026-05-01 15:31 | 41.21624 | 28.70753 | 1531 ft | 129 kts | 6° |
| 2026-05-01 15:32 | 41.23404 | 28.70762 | 1081 ft | 127 kts | 6° |
| 2026-05-01 15:32 | 41.25177 | 28.70756 | 638 ft | 124 kts | 6° |
| 2026-05-01 15:33 | 41.27787 | 28.70713 | 338 ft | 115 kts | 4° |
| 2026-05-01 15:34 | 41.29039 | 28.70795 | 337 ft | 26 kts | 25° |